Time,TemperatureF,DewpointF,PressureIn,WindDirection,WindDirectionDegrees,WindSpeedMPH,WindSpeedGustMPH,Humidity,HourlyPrecipIn,Conditions,Clouds,dailyrainin,SoftwareType,DateUTC
2013-10-10 00:01:00,53.6,48.2,30.33,ENE,68,8.0,13.0,82,0.00,,,0.00,meteohub,2013-10-10 04:01:00,
2013-10-10 00:02:00,53.6,48.2,30.33,ENE,68,8.0,13.0,82,0.00,,,0.00,meteohub,2013-10-10 04:02:00,
2013-10-10 00:03:00,53.8,48.4,30.32,East,90,6.0,13.0,82,0.00,,,0.00,meteohub,2013-10-10 04:03:00,
2013-10-10 00:05:00,53.8,48.4,30.32,SE,135,9.0,13.0,82,0.00,,,0.00,meteohub,2013-10-10 04:05:00,
2013-10-10 00:07:00,53.8,48.4,30.32,SE,135,9.0,13.0,82,0.00,,,0.00,meteohub,2013-10-10 04:07:00,
2013-10-10 00:12:00,53.8,48.4,30.32,SE,135,9.0,9.0,82,0.00,,,0.00,meteohub,2013-10-10 04:12:00,
2013-10-10 00:17:00,53.8,48.4,30.32,ESE,113,6.0,9.0,82,0.00,,,0.00,meteohub,2013-10-10 04:17:00,
2013-10-10 00:22:00,53.8,48.4,30.32,NE,45,7.0,9.0,82,0.00,,,0.00,meteohub,2013-10-10 04:22:00,
2013-10-10 00:27:00,53.6,48.2,30.32,ESE,113,11.0,11.0,82,0.00,,,0.00,meteohub,2013-10-10 04:27:00,
2013-10-10 00:32:00,53.6,48.2,30.32,ENE,68,8.0,11.0,82,0.00,,,0.00,meteohub,2013-10-10 04:32:00,
2013-10-10 00:37:00,53.6,48.2,30.32,East,90,12.0,12.0,82,0.00,,,0.00,meteohub,2013-10-10 04:37:00,
2013-10-10 00:42:00,53.6,48.2,30.32,ENE,68,6.0,12.0,82,0.00,,,0.00,meteohub,2013-10-10 04:42:00,
2013-10-10 00:47:00,53.4,48.4,30.32,East,90,11.0,12.0,83,0.00,,,0.00,meteohub,2013-10-10 04:47:00,
2013-10-10 00:52:00,53.4,48.4,30.32,ESE,113,14.0,14.0,83,0.00,,,0.00,meteohub,2013-10-10 04:52:00,
2013-10-10 00:57:00,53.4,48.4,30.32,East,90,9.0,12.0,83,0.00,,,0.00,meteohub,2013-10-10 04:57:00,
2013-10-10 01:02:00,53.4,48.4,30.32,East,90,7.0,14.0,83,0.00,,,0.00,meteohub,2013-10-10 05:02:00,
2013-10-10 01:07:00,53.4,48.4,30.32,East,90,9.0,14.0,83,0.00,,,0.00,meteohub,2013-10-10 05:07:00,
2013-10-10 01:12:00,53.4,48.4,30.32,ENE,68,10.0,10.0,83,0.00,,,0.00,meteohub,2013-10-10 05:12:00,
2013-10-10 01:17:00,53.4,48.4,30.32,SE,135,5.0,13.0,83,0.00,,,0.00,meteohub,2013-10-10 05:17:00,
2013-10-10 01:22:00,53.4,48.4,30.32,ENE,68,8.0,13.0,83,0.00,,,0.00,meteohub,2013-10-10 05:22:00,
2013-10-10 01:27:00,53.4,48.4,30.32,ESE,113,10.0,11.0,83,0.00,,,0.00,meteohub,2013-10-10 05:27:00,
2013-10-10 01:32:00,53.4,48.4,30.32,NE,45,9.0,11.0,83,0.00,,,0.00,meteohub,2013-10-10 05:32:00,
2013-10-10 01:37:00,53.4,48.4,30.32,SE,135,12.0,12.0,83,0.00,,,0.00,meteohub,2013-10-10 05:37:00,
2013-10-10 01:42:00,53.4,48.4,30.32,East,90,10.0,12.0,83,0.00,,,0.00,meteohub,2013-10-10 05:42:00,
2013-10-10 01:47:00,53.4,48.4,30.31,SE,135,12.0,12.0,83,0.00,,,0.00,meteohub,2013-10-10 05:47:00,
2013-10-10 01:52:00,53.4,48.4,30.31,East,90,11.0,12.0,83,0.00,,,0.00,meteohub,2013-10-10 05:52:00,
2013-10-10 01:57:00,53.4,48.4,30.31,ESE,113,9.0,12.0,83,0.00,,,0.00,meteohub,2013-10-10 05:57:00,
2013-10-10 02:02:00,53.4,48.4,30.31,WNW,293,11.0,12.0,83,0.00,,,0.00,meteohub,2013-10-10 06:02:00,
2013-10-10 02:07:00,53.4,48.4,30.31,East,90,6.0,11.0,83,0.00,,,0.00,meteohub,2013-10-10 06:07:00,
2013-10-10 02:12:00,53.4,48.4,30.31,NNE,23,7.0,12.0,83,0.00,,,0.00,meteohub,2013-10-10 06:12:00,
2013-10-10 02:17:00,53.4,48.4,30.31,SSE,158,9.0,12.0,83,0.00,,,0.00,meteohub,2013-10-10 06:17:00,
2013-10-10 02:22:00,53.4,48.4,30.31,ENE,68,9.0,12.0,83,0.00,,,0.00,meteohub,2013-10-10 06:22:00,
2013-10-10 02:27:00,53.4,48.4,30.30,ENE,68,8.0,12.0,83,0.00,,,0.00,meteohub,2013-10-10 06:27:00,
2013-10-10 02:32:00,53.4,48.4,30.30,ENE,68,11.0,12.0,83,0.00,,,0.00,meteohub,2013-10-10 06:32:00,
2013-10-10 02:37:00,53.4,48.4,30.30,SE,135,10.0,13.0,83,0.00,,,0.00,meteohub,2013-10-10 06:37:00,
2013-10-10 02:42:00,53.4,48.4,30.30,East,90,11.0,13.0,83,0.00,,,0.00,meteohub,2013-10-10 06:42:00,
2013-10-10 02:47:00,53.6,48.6,30.28,ENE,68,10.0,13.0,83,0.00,,,0.00,meteohub,2013-10-10 06:47:00,
2013-10-10 02:52:00,53.6,48.6,30.28,ENE,68,11.0,13.0,83,0.00,,,0.00,meteohub,2013-10-10 06:52:00,
2013-10-10 02:57:00,53.6,48.6,30.28,ENE,68,7.0,13.0,83,0.00,,,0.00,meteohub,2013-10-10 06:57:00,
2013-10-10 03:03:00,53.6,48.2,30.28,East,90,10.0,13.0,82,0.00,,,0.00,meteohub,2013-10-10 07:03:00,
2013-10-10 03:12:00,53.8,48.7,30.27,ESE,113,10.0,13.0,83,0.00,,,0.00,meteohub,2013-10-10 07:12:00,
2013-10-10 03:17:00,53.8,48.7,30.27,ENE,68,17.0,17.0,83,0.00,,,0.00,meteohub,2013-10-10 07:17:00,
2013-10-10 03:22:00,53.6,48.2,30.27,SE,135,14.0,17.0,82,0.00,,,0.00,meteohub,2013-10-10 07:22:00,
2013-10-10 03:28:00,53.6,48.2,30.28,SE,135,13.0,17.0,82,0.00,,,0.00,meteohub,2013-10-10 07:28:00,
2013-10-10 03:34:00,53.6,48.2,30.28,ESE,113,6.0,17.0,82,0.00,,,0.00,meteohub,2013-10-10 07:34:00,
2013-10-10 03:39:00,53.6,48.2,30.28,SE,135,13.0,14.0,82,0.00,,,0.00,meteohub,2013-10-10 07:39:00,
2013-10-10 03:44:00,53.6,48.2,30.28,ESE,113,13.0,13.0,82,0.00,,,0.00,meteohub,2013-10-10 07:44:00,
2013-10-10 03:49:00,53.8,48.4,30.28,East,90,18.0,18.0,82,0.00,,,0.00,meteohub,2013-10-10 07:49:00,
2013-10-10 03:54:00,53.8,48.4,30.28,ENE,68,9.0,18.0,82,0.00,,,0.00,meteohub,2013-10-10 07:54:00,
2013-10-10 03:59:00,53.8,48.4,30.28,ESE,113,12.0,18.0,82,0.00,,,0.00,meteohub,2013-10-10 07:59:00,
2013-10-10 04:04:00,53.8,48.4,30.28,SE,135,12.0,18.0,82,0.00,,,0.00,meteohub,2013-10-10 08:04:00,
2013-10-10 04:09:00,53.8,48.4,30.28,ESE,113,12.0,12.0,82,0.00,,,0.00,meteohub,2013-10-10 08:09:00,
2013-10-10 04:14:00,53.8,48.4,30.28,SE,135,12.0,12.0,82,0.00,,,0.00,meteohub,2013-10-10 08:14:00,
2013-10-10 04:19:00,53.8,48.4,30.28,ESE,113,9.0,12.0,82,0.00,,,0.00,meteohub,2013-10-10 08:19:00,
2013-10-10 04:24:00,53.8,48.0,30.28,ESE,113,9.0,13.0,81,0.00,,,0.00,meteohub,2013-10-10 08:24:00,
2013-10-10 04:30:00,53.8,48.0,30.28,SE,135,17.0,17.0,81,0.00,,,0.00,meteohub,2013-10-10 08:30:00,
2013-10-10 04:35:00,54.0,48.6,30.28,SE,135,9.0,17.0,82,0.00,,,0.00,meteohub,2013-10-10 08:35:00,
2013-10-10 04:40:00,54.0,48.6,30.28,ESE,113,15.0,19.0,82,0.00,,,0.00,meteohub,2013-10-10 08:40:00,
2013-10-10 04:45:00,54.1,48.4,30.28,SE,135,13.0,19.0,81,0.00,,,0.00,meteohub,2013-10-10 08:45:00,
2013-10-10 04:50:00,54.1,48.7,30.28,ESE,113,11.0,19.0,82,0.00,,,0.00,meteohub,2013-10-10 08:50:00,
2013-10-10 04:55:00,54.1,48.7,30.28,ESE,113,9.0,15.0,82,0.00,,,0.00,meteohub,2013-10-10 08:55:00,
2013-10-10 05:00:00,54.0,48.6,30.28,East,90,12.0,13.0,82,0.00,,,0.00,meteohub,2013-10-10 09:00:00,
2013-10-10 05:05:00,54.1,48.7,30.28,ESE,113,11.0,13.0,82,0.00,,,0.00,meteohub,2013-10-10 09:05:00,
2013-10-10 05:10:00,54.1,48.7,30.28,SE,135,11.0,13.0,82,0.00,,,0.00,meteohub,2013-10-10 09:10:00,
2013-10-10 05:15:00,54.1,48.7,30.28,SE,135,5.0,13.0,82,0.00,,,0.00,meteohub,2013-10-10 09:15:00,
2013-10-10 05:21:00,54.3,48.9,30.28,ESE,113,9.0,13.0,82,0.00,,,0.00,meteohub,2013-10-10 09:21:00,
2013-10-10 05:26:00,54.3,48.9,30.28,East,90,10.0,13.0,82,0.00,,,0.00,meteohub,2013-10-10 09:26:00,
2013-10-10 05:31:00,54.3,48.9,30.28,NE,45,6.0,11.0,82,0.00,,,0.00,meteohub,2013-10-10 09:31:00,
2013-10-10 05:36:00,54.1,48.7,30.28,NNW,338,9.0,11.0,82,0.00,,,0.00,meteohub,2013-10-10 09:36:00,
2013-10-10 05:41:00,54.1,48.7,30.28,ENE,68,9.0,10.0,82,0.00,,,0.00,meteohub,2013-10-10 09:41:00,
2013-10-10 05:46:00,54.3,48.9,30.27,East,90,9.0,10.0,82,0.00,,,0.00,meteohub,2013-10-10 09:46:00,
2013-10-10 05:51:00,54.3,49.3,30.27,ENE,68,11.0,12.0,83,0.00,,,0.00,meteohub,2013-10-10 09:51:00,
2013-10-10 05:56:00,54.3,49.3,30.27,ESE,113,10.0,12.0,83,0.00,,,0.00,meteohub,2013-10-10 09:56:00,
2013-10-10 06:01:00,54.3,49.3,30.27,ESE,113,7.0,11.0,83,0.00,,,0.00,meteohub,2013-10-10 10:01:00,
2013-10-10 06:06:00,54.3,49.3,30.27,ENE,68,8.0,11.0,83,0.00,,,0.00,meteohub,2013-10-10 10:06:00,
2013-10-10 06:11:00,54.3,49.3,30.27,ENE,68,8.0,10.0,83,0.00,,,0.00,meteohub,2013-10-10 10:11:00,
2013-10-10 06:17:00,54.3,49.3,30.27,East,90,11.0,11.0,83,0.00,,,0.00,meteohub,2013-10-10 10:17:00,
2013-10-10 06:22:00,54.3,49.3,30.27,ENE,68,14.0,14.0,83,0.00,,,0.00,meteohub,2013-10-10 10:22:00,
2013-10-10 06:27:00,54.5,49.5,30.26,SSE,158,9.0,14.0,83,0.00,,,0.00,meteohub,2013-10-10 10:27:00,
2013-10-10 06:32:00,54.5,49.5,30.26,ESE,113,11.0,14.0,83,0.00,,,0.00,meteohub,2013-10-10 10:32:00,
2013-10-10 06:37:00,54.5,49.5,30.26,East,90,13.0,14.0,83,0.00,,,0.00,meteohub,2013-10-10 10:37:00,
2013-10-10 06:42:00,54.7,49.6,30.26,SE,135,10.0,13.0,83,0.00,,,0.00,meteohub,2013-10-10 10:42:00,
2013-10-10 06:47:00,54.9,49.8,30.27,SE,135,12.0,17.0,83,0.00,,,0.00,meteohub,2013-10-10 10:47:00,
2013-10-10 06:52:00,54.7,49.6,30.27,ENE,68,8.0,17.0,83,0.00,,,0.00,meteohub,2013-10-10 10:52:00,
2013-10-10 06:57:00,54.9,49.8,30.27,East,90,13.0,17.0,83,0.00,,,0.00,meteohub,2013-10-10 10:57:00,
2013-10-10 07:02:00,55.0,50.0,30.27,ENE,68,6.0,13.0,83,0.00,,,0.00,meteohub,2013-10-10 11:02:00,
2013-10-10 07:07:00,55.0,50.0,30.26,ESE,113,13.0,13.0,83,0.00,,,0.00,meteohub,2013-10-10 11:07:00,
2013-10-10 07:12:00,55.2,50.2,30.26,SE,135,8.0,13.0,83,0.00,,,0.00,meteohub,2013-10-10 11:12:00,
2013-10-10 07:17:00,55.4,50.4,30.26,ENE,68,6.0,13.0,83,0.00,,,0.00,meteohub,2013-10-10 11:17:00,
2013-10-10 07:22:00,55.6,50.5,30.26,ESE,113,9.0,13.0,83,0.00,,,0.00,meteohub,2013-10-10 11:22:00,
2013-10-10 07:27:00,55.6,50.5,30.27,West,270,9.0,9.0,83,0.00,,,0.00,meteohub,2013-10-10 11:27:00,
2013-10-10 07:32:00,55.6,50.5,30.27,ENE,68,10.0,13.0,83,0.00,,,0.00,meteohub,2013-10-10 11:32:00,
2013-10-10 07:37:00,55.8,50.7,30.27,East,90,9.0,13.0,83,0.00,,,0.00,meteohub,2013-10-10 11:37:00,
2013-10-10 07:42:00,55.8,50.4,30.27,ENE,68,9.0,14.0,82,0.00,,,0.00,meteohub,2013-10-10 11:42:00,
2013-10-10 07:47:00,55.9,50.5,30.27,NE,45,11.0,14.0,82,0.00,,,0.00,meteohub,2013-10-10 11:47:00,
2013-10-10 07:52:00,56.3,51.3,30.27,ESE,113,10.0,14.0,83,0.00,,,0.00,meteohub,2013-10-10 11:52:00,
2013-10-10 07:57:00,56.5,51.1,30.27,ESE,113,7.0,11.0,82,0.00,,,0.00,meteohub,2013-10-10 11:57:00,
2013-10-10 08:02:00,56.5,51.1,30.27,ESE,113,10.0,11.0,82,0.00,,,0.00,meteohub,2013-10-10 12:02:00,
2013-10-10 08:07:00,56.7,51.3,30.27,ESE,113,9.0,11.0,82,0.00,,,0.00,meteohub,2013-10-10 12:07:00,
2013-10-10 08:12:00,57.0,51.6,30.27,SE,135,12.0,12.0,82,0.00,,,0.00,meteohub,2013-10-10 12:12:00,
2013-10-10 08:17:00,57.0,51.6,30.27,ESE,113,12.0,12.0,82,0.00,,,0.00,meteohub,2013-10-10 12:17:00,
2013-10-10 08:22:00,57.2,51.8,30.27,ESE,113,7.0,12.0,82,0.00,,,0.00,meteohub,2013-10-10 12:22:00,
2013-10-10 08:27:00,57.4,52.0,30.27,ESE,113,9.0,12.0,82,0.00,,,0.00,meteohub,2013-10-10 12:27:00,
2013-10-10 08:32:00,57.7,52.3,30.27,SSE,158,6.0,12.0,82,0.00,,,0.00,meteohub,2013-10-10 12:32:00,
2013-10-10 08:37:00,57.7,52.0,30.27,SE,135,6.0,11.0,81,0.00,,,0.00,meteohub,2013-10-10 12:37:00,
2013-10-10 08:42:00,57.7,52.0,30.27,ENE,68,6.0,9.0,81,0.00,,,0.00,meteohub,2013-10-10 12:42:00,
2013-10-10 08:47:00,57.9,52.2,30.27,East,90,6.0,11.0,81,0.00,,,0.00,meteohub,2013-10-10 12:47:00,
2013-10-10 08:52:00,57.9,52.2,30.27,SE,135,11.0,11.0,81,0.00,,,0.00,meteohub,2013-10-10 12:52:00,
2013-10-10 08:57:00,58.1,52.3,30.27,SE,135,10.0,11.0,81,0.00,,,0.00,meteohub,2013-10-10 12:57:00,
2013-10-10 09:02:00,58.3,52.5,30.27,SSE,158,11.0,11.0,81,0.00,,,0.00,meteohub,2013-10-10 13:02:00,
2013-10-10 09:07:00,58.5,52.7,30.27,ESE,113,5.0,12.0,81,0.00,,,0.00,meteohub,2013-10-10 13:07:00,
2013-10-10 09:12:00,58.5,52.7,30.27,ESE,113,11.0,12.0,81,0.00,,,0.00,meteohub,2013-10-10 13:12:00,
2013-10-10 09:17:00,58.6,52.9,30.27,ENE,68,11.0,11.0,81,0.00,,,0.00,meteohub,2013-10-10 13:17:00,
2013-10-10 09:22:00,58.6,52.9,30.27,ESE,113,4.0,11.0,81,0.00,,,0.00,meteohub,2013-10-10 13:22:00,
2013-10-10 09:27:00,58.8,53.1,30.26,ENE,68,5.0,11.0,81,0.00,,,0.00,meteohub,2013-10-10 13:27:00,
2013-10-10 09:32:00,59.2,53.4,30.26,ESE,113,10.0,12.0,81,0.00,,,0.00,meteohub,2013-10-10 13:32:00,
2013-10-10 09:37:00,59.4,53.2,30.26,ENE,68,11.0,13.0,80,0.00,,,0.00,meteohub,2013-10-10 13:37:00,
2013-10-10 09:42:00,59.7,53.6,30.26,ENE,68,7.0,13.0,80,0.00,,,0.00,meteohub,2013-10-10 13:42:00,
2013-10-10 09:47:00,59.9,53.8,30.26,SE,135,12.0,13.0,80,0.00,,,0.00,meteohub,2013-10-10 13:47:00,
2013-10-10 09:52:00,59.9,53.8,30.26,ESE,113,13.0,15.0,80,0.00,,,0.00,meteohub,2013-10-10 13:52:00,
2013-10-10 09:57:00,60.3,54.1,30.26,SE,135,10.0,15.0,80,0.00,,,0.00,meteohub,2013-10-10 13:57:00,
2013-10-10 10:02:00,60.3,54.1,30.26,ESE,113,7.0,15.0,80,0.00,,,0.00,meteohub,2013-10-10 14:02:00,
2013-10-10 10:07:00,60.4,54.3,30.26,ESE,113,10.0,13.0,80,0.00,,,0.00,meteohub,2013-10-10 14:07:00,
2013-10-10 10:12:00,60.4,54.3,30.26,ENE,68,9.0,10.0,80,0.00,,,0.00,meteohub,2013-10-10 14:12:00,
2013-10-10 10:17:00,60.6,54.1,30.26,West,270,9.0,10.0,79,0.00,,,0.00,meteohub,2013-10-10 14:17:00,
2013-10-10 10:22:00,61.0,54.5,30.26,SE,135,10.0,12.0,79,0.00,,,0.00,meteohub,2013-10-10 14:22:00,
2013-10-10 10:27:00,61.2,54.7,30.25,ESE,113,14.0,14.0,79,0.00,,,0.00,meteohub,2013-10-10 14:27:00,
2013-10-10 10:32:00,61.5,54.9,30.25,SSE,158,7.0,14.0,79,0.00,,,0.00,meteohub,2013-10-10 14:32:00,
2013-10-10 10:37:00,61.7,55.0,30.25,ENE,68,10.0,14.0,79,0.00,,,0.00,meteohub,2013-10-10 14:37:00,
2013-10-10 10:42:00,61.9,54.9,30.25,ESE,113,12.0,14.0,78,0.00,,,0.00,meteohub,2013-10-10 14:42:00,
2013-10-10 10:47:00,62.1,55.0,30.24,ENE,68,9.0,12.0,78,0.00,,,0.00,meteohub,2013-10-10 14:47:00,
2013-10-10 10:52:00,62.4,55.4,30.24,NE,45,9.0,12.0,78,0.00,,,0.00,meteohub,2013-10-10 14:52:00,
2013-10-10 10:57:00,62.8,55.4,30.24,ENE,68,7.0,12.0,77,0.00,,,0.00,meteohub,2013-10-10 14:57:00,
2013-10-10 11:02:00,63.3,55.9,30.24,East,90,12.0,12.0,77,0.00,,,0.00,meteohub,2013-10-10 15:02:00,
2013-10-10 11:07:00,63.5,56.1,30.24,ESE,113,14.0,14.0,77,0.00,,,0.00,meteohub,2013-10-10 15:07:00,
2013-10-10 11:12:00,63.7,55.9,30.24,NNW,338,3.0,14.0,76,0.00,,,0.00,meteohub,2013-10-10 15:12:00,
2013-10-10 11:17:00,64.0,56.3,30.24,ENE,68,7.0,14.0,76,0.00,,,0.00,meteohub,2013-10-10 15:17:00,
2013-10-10 11:22:00,64.2,56.1,30.24,SE,135,10.0,14.0,75,0.00,,,0.00,meteohub,2013-10-10 15:22:00,
2013-10-10 11:27:00,64.4,56.7,30.24,ESE,113,7.0,10.0,76,0.00,,,0.00,meteohub,2013-10-10 15:27:00,
2013-10-10 11:32:00,64.6,56.8,30.24,ESE,113,11.0,11.0,76,0.00,,,0.00,meteohub,2013-10-10 15:32:00,
2013-10-10 11:37:00,64.9,56.8,30.24,ENE,68,8.0,11.0,75,0.00,,,0.00,meteohub,2013-10-10 15:37:00,
2013-10-10 11:42:00,65.1,57.0,30.24,East,90,5.0,11.0,75,0.00,,,0.00,meteohub,2013-10-10 15:42:00,
2013-10-10 11:47:00,65.3,56.8,30.24,ESE,113,11.0,11.0,74,0.00,,,0.00,meteohub,2013-10-10 15:47:00,
2013-10-10 11:53:00,65.5,57.4,30.24,NE,45,7.0,9.0,75,0.00,,,0.00,meteohub,2013-10-10 15:53:00,
2013-10-10 11:58:00,66.0,57.6,30.24,ENE,68,8.0,12.0,74,0.00,,,0.00,meteohub,2013-10-10 15:58:00,
2013-10-10 12:03:00,65.8,57.4,30.23,SE,135,8.0,12.0,74,0.00,,,0.00,meteohub,2013-10-10 16:03:00,
2013-10-10 12:08:00,65.8,57.4,30.23,SE,135,7.0,12.0,74,0.00,,,0.00,meteohub,2013-10-10 16:08:00,
2013-10-10 12:13:00,65.8,57.4,30.23,SE,135,7.0,9.0,74,0.00,,,0.00,meteohub,2013-10-10 16:13:00,
2013-10-10 12:18:00,66.7,57.4,30.23,East,90,8.0,9.0,72,0.00,,,0.00,meteohub,2013-10-10 16:18:00,
2013-10-10 12:23:00,66.7,57.7,30.23,ENE,68,8.0,8.0,73,0.00,,,0.00,meteohub,2013-10-10 16:23:00,
2013-10-10 12:28:00,66.9,57.6,30.23,South,180,9.0,9.0,72,0.00,,,0.00,meteohub,2013-10-10 16:28:00,
2013-10-10 12:33:00,67.1,58.1,30.23,ESE,113,7.0,10.0,73,0.00,,,0.00,meteohub,2013-10-10 16:33:00,
2013-10-10 12:38:00,66.9,57.6,30.23,ESE,113,11.0,11.0,72,0.00,,,0.00,meteohub,2013-10-10 16:38:00,
2013-10-10 12:43:00,67.1,58.1,30.22,SE,135,10.0,10.0,73,0.00,,,0.00,meteohub,2013-10-10 16:43:00,
2013-10-10 12:49:00,67.1,58.1,30.22,SE,135,5.0,18.0,73,0.00,,,0.00,meteohub,2013-10-10 16:49:00,
2013-10-10 12:54:00,67.3,57.9,30.22,ESE,113,4.0,18.0,72,0.00,,,0.00,meteohub,2013-10-10 16:54:00,
2013-10-10 12:59:00,66.9,57.6,30.22,ENE,68,7.0,18.0,72,0.00,,,0.00,meteohub,2013-10-10 16:59:00,
2013-10-10 13:04:00,67.1,58.1,30.21,ENE,68,7.0,12.0,73,0.00,,,0.00,meteohub,2013-10-10 17:04:00,
2013-10-10 13:09:00,67.1,58.1,30.21,ESE,113,7.0,12.0,73,0.00,,,0.00,meteohub,2013-10-10 17:09:00,
2013-10-10 13:14:00,67.1,58.1,30.21,SE,135,7.0,12.0,73,0.00,,,0.00,meteohub,2013-10-10 17:14:00,
2013-10-10 13:19:00,67.1,58.1,30.21,SE,135,8.0,10.0,73,0.00,,,0.00,meteohub,2013-10-10 17:19:00,
2013-10-10 13:24:00,67.3,58.3,30.21,ENE,68,10.0,10.0,73,0.00,,,0.00,meteohub,2013-10-10 17:24:00,
2013-10-10 13:29:00,67.1,58.1,30.21,ESE,113,7.0,10.0,73,0.00,,,0.00,meteohub,2013-10-10 17:29:00,
2013-10-10 13:34:00,67.1,58.1,30.21,ENE,68,6.0,12.0,73,0.00,,,0.00,meteohub,2013-10-10 17:34:00,
2013-10-10 13:40:00,66.7,58.1,30.21,ESE,113,10.0,12.0,74,0.00,,,0.00,meteohub,2013-10-10 17:40:00,
2013-10-10 13:45:00,66.7,58.6,30.20,ESE,113,8.0,10.0,75,0.00,,,0.00,meteohub,2013-10-10 17:45:00,
2013-10-10 13:50:00,66.6,58.5,30.20,SSE,158,3.0,10.0,75,0.00,,,0.00,meteohub,2013-10-10 17:50:00,
2013-10-10 13:55:00,66.9,58.8,30.20,SE,135,6.0,10.0,75,0.00,,,0.00,meteohub,2013-10-10 17:55:00,
2013-10-10 14:00:00,66.9,58.8,30.20,SE,135,9.0,12.0,75,0.00,,,0.00,meteohub,2013-10-10 18:00:00,
2013-10-10 14:05:00,67.1,58.8,30.20,ESE,113,9.0,12.0,75,0.00,,,0.00,meteohub,2013-10-10 18:05:00,
2013-10-10 14:10:00,67.1,58.8,30.20,ENE,68,8.0,12.0,75,0.00,,,0.00,meteohub,2013-10-10 18:10:00,
2013-10-10 14:15:00,67.3,59.0,30.20,SSE,158,10.0,10.0,75,0.00,,,0.00,meteohub,2013-10-10 18:15:00,
2013-10-10 14:20:00,67.3,59.0,30.20,SE,135,8.0,13.0,75,0.00,,,0.00,meteohub,2013-10-10 18:20:00,
2013-10-10 14:25:00,67.6,59.0,30.19,SE,135,7.0,13.0,74,0.00,,,0.00,meteohub,2013-10-10 18:25:00,
2013-10-10 14:31:00,67.8,59.5,30.19,ESE,113,10.0,10.0,75,0.00,,,0.00,meteohub,2013-10-10 18:31:00,
2013-10-10 14:36:00,68.2,59.5,30.19,ESE,113,8.0,12.0,74,0.00,,,0.00,meteohub,2013-10-10 18:36:00,
2013-10-10 14:41:00,68.0,59.0,30.19,SE,135,10.0,12.0,73,0.00,,,0.00,meteohub,2013-10-10 18:41:00,
2013-10-10 14:46:00,68.0,59.0,30.19,ESE,113,7.0,12.0,73,0.00,,,0.00,meteohub,2013-10-10 18:46:00,
2013-10-10 14:51:00,67.8,59.2,30.19,ENE,68,8.0,10.0,74,0.00,,,0.00,meteohub,2013-10-10 18:51:00,
2013-10-10 14:56:00,67.6,59.0,30.19,ESE,113,8.0,10.0,74,0.00,,,0.00,meteohub,2013-10-10 18:56:00,
2013-10-10 15:01:00,67.8,59.2,30.19,ESE,113,8.0,8.0,74,0.00,,,0.00,meteohub,2013-10-10 19:01:00,
2013-10-10 15:06:00,67.8,59.5,30.19,ESE,113,7.0,8.0,75,0.00,,,0.00,meteohub,2013-10-10 19:06:00,
2013-10-10 15:12:00,67.8,59.5,30.19,SE,135,8.0,9.0,75,0.00,,,0.00,meteohub,2013-10-10 19:12:00,
2013-10-10 15:17:00,67.6,59.0,30.19,ESE,113,8.0,13.0,74,0.00,,,0.00,meteohub,2013-10-10 19:17:00,
2013-10-10 15:22:00,67.8,59.2,30.19,ESE,113,8.0,13.0,74,0.00,,,0.00,meteohub,2013-10-10 19:22:00,
2013-10-10 15:27:00,67.6,59.0,30.18,SE,135,10.0,13.0,74,0.00,,,0.00,meteohub,2013-10-10 19:27:00,
2013-10-10 15:32:00,68.2,59.5,30.18,ENE,68,5.0,10.0,74,0.00,,,0.00,meteohub,2013-10-10 19:32:00,
2013-10-10 15:37:00,68.2,59.5,30.18,ENE,68,8.0,10.0,74,0.00,,,0.00,meteohub,2013-10-10 19:37:00,
2013-10-10 15:42:00,68.4,59.7,30.18,East,90,9.0,10.0,74,0.00,,,0.00,meteohub,2013-10-10 19:42:00,
2013-10-10 15:47:00,68.0,59.4,30.17,ENE,68,6.0,8.0,74,0.00,,,0.00,meteohub,2013-10-10 19:47:00,
2013-10-10 15:52:00,68.0,59.4,30.17,SE,135,11.0,11.0,74,0.00,,,0.00,meteohub,2013-10-10 19:52:00,
2013-10-10 15:57:00,68.0,59.0,30.17,ESE,113,10.0,11.0,73,0.00,,,0.00,meteohub,2013-10-10 19:57:00,
2013-10-10 16:02:00,68.0,59.4,30.17,NE,45,6.0,11.0,74,0.00,,,0.00,meteohub,2013-10-10 20:02:00,
2013-10-10 16:07:00,68.2,59.5,30.17,East,90,8.0,11.0,74,0.00,,,0.00,meteohub,2013-10-10 20:07:00,
2013-10-10 16:12:00,68.0,59.4,30.17,SE,135,9.0,11.0,74,0.00,,,0.00,meteohub,2013-10-10 20:12:00,
2013-10-10 16:17:00,67.6,59.0,30.17,ENE,68,11.0,11.0,74,0.00,,,0.00,meteohub,2013-10-10 20:17:00,
2013-10-10 16:22:00,67.8,59.2,30.17,ENE,68,5.0,11.0,74,0.00,,,0.00,meteohub,2013-10-10 20:22:00,
2013-10-10 16:27:00,67.5,58.8,30.16,SE,135,8.0,11.0,74,0.00,,,0.00,meteohub,2013-10-10 20:27:00,
2013-10-10 16:31:00,67.1,58.5,30.16,SE,135,10.0,11.0,74,0.00,,,0.00,meteohub,2013-10-10 20:31:00,
2013-10-10 16:36:00,67.1,58.8,30.16,East,90,9.0,14.0,75,0.00,,,0.00,meteohub,2013-10-10 20:36:00,
2013-10-10 16:41:00,67.1,58.8,30.16,ENE,68,13.0,14.0,75,0.00,,,0.00,meteohub,2013-10-10 20:41:00,
2013-10-10 16:46:00,66.7,58.6,30.15,SE,135,5.0,14.0,75,0.00,,,0.00,meteohub,2013-10-10 20:46:00,
2013-10-10 16:51:00,66.6,58.5,30.15,SE,135,13.0,13.0,75,0.00,,,0.00,meteohub,2013-10-10 20:51:00,
2013-10-10 16:56:00,66.6,58.5,30.15,ENE,68,10.0,13.0,75,0.00,,,0.00,meteohub,2013-10-10 20:56:00,
2013-10-10 17:01:00,66.4,58.3,30.15,ESE,113,10.0,13.0,75,0.00,,,0.00,meteohub,2013-10-10 21:01:00,
2013-10-10 17:06:00,66.2,58.5,30.15,SE,135,8.0,13.0,76,0.00,,,0.00,meteohub,2013-10-10 21:06:00,
2013-10-10 17:12:00,66.0,58.3,30.15,East,90,5.0,10.0,76,0.00,,,0.00,meteohub,2013-10-10 21:12:00,
2013-10-10 17:17:00,65.7,57.9,30.15,ESE,113,12.0,12.0,76,0.00,,,0.00,meteohub,2013-10-10 21:17:00,
2013-10-10 17:22:00,65.5,57.7,30.15,ESE,113,9.0,12.0,76,0.00,,,0.00,meteohub,2013-10-10 21:22:00,
2013-10-10 17:27:00,65.7,57.9,30.14,ENE,68,9.0,12.0,76,0.00,,,0.00,meteohub,2013-10-10 21:27:00,
2013-10-10 17:32:00,65.1,57.7,30.14,SE,135,11.0,12.0,77,0.00,,,0.00,meteohub,2013-10-10 21:32:00,
2013-10-10 17:37:00,65.3,57.9,30.14,East,90,14.0,14.0,77,0.00,,,0.00,meteohub,2013-10-10 21:37:00,
2013-10-10 17:42:00,64.9,57.6,30.14,ENE,68,9.0,14.0,77,0.00,,,0.00,meteohub,2013-10-10 21:42:00,
2013-10-10 17:47:00,64.8,57.4,30.14,WSW,248,8.0,14.0,77,0.00,,,0.00,meteohub,2013-10-10 21:47:00,
2013-10-10 17:52:00,64.4,57.4,30.14,East,90,6.0,14.0,78,0.00,,,0.00,meteohub,2013-10-10 21:52:00,
2013-10-10 17:57:00,64.4,57.4,30.14,ESE,113,9.0,12.0,78,0.00,,,0.00,meteohub,2013-10-10 21:57:00,
2013-10-10 18:02:00,64.0,57.0,30.14,ESE,113,10.0,12.0,78,0.00,,,0.00,meteohub,2013-10-10 22:02:00,
2013-10-10 18:07:00,63.9,57.2,30.14,ESE,113,7.0,12.0,79,0.00,,,0.00,meteohub,2013-10-10 22:07:00,
2013-10-10 18:12:00,63.9,57.2,30.14,ENE,68,10.0,12.0,79,0.00,,,0.00,meteohub,2013-10-10 22:12:00,
2013-10-10 18:17:00,63.9,57.2,30.14,ESE,113,8.0,12.0,79,0.00,,,0.00,meteohub,2013-10-10 22:17:00,
2013-10-10 18:22:00,63.7,57.0,30.14,East,90,8.0,10.0,79,0.00,,,0.00,meteohub,2013-10-10 22:22:00,
2013-10-10 18:27:00,63.7,57.0,30.15,East,90,6.0,10.0,79,0.00,,,0.00,meteohub,2013-10-10 22:27:00,
2013-10-10 18:32:00,63.5,56.8,30.15,ESE,113,7.0,10.0,79,0.00,,,0.00,meteohub,2013-10-10 22:32:00,
2013-10-10 18:37:00,63.3,56.7,30.15,ESE,113,4.0,10.0,79,0.00,,,0.00,meteohub,2013-10-10 22:37:00,
2013-10-10 18:42:00,63.3,57.0,30.15,ENE,68,8.0,8.0,80,0.00,,,0.00,meteohub,2013-10-10 22:42:00,
2013-10-10 18:47:00,63.1,56.8,30.15,ESE,113,6.0,9.0,80,0.00,,,0.00,meteohub,2013-10-10 22:47:00,
2013-10-10 18:52:00,63.0,56.7,30.15,ESE,113,9.0,9.0,80,0.00,,,0.00,meteohub,2013-10-10 22:52:00,
2013-10-10 18:57:00,63.0,56.7,30.15,East,90,9.0,9.0,80,0.00,,,0.00,meteohub,2013-10-10 22:57:00,
2013-10-10 19:02:00,62.8,56.5,30.15,ESE,113,8.0,10.0,80,0.00,,,0.00,meteohub,2013-10-10 23:02:00,
2013-10-10 19:07:00,62.6,56.3,30.16,NE,45,7.0,10.0,80,0.00,,,0.00,meteohub,2013-10-10 23:07:00,
2013-10-10 19:12:00,62.8,56.5,30.16,ESE,113,9.0,11.0,80,0.00,,,0.00,meteohub,2013-10-10 23:12:00,
2013-10-10 19:17:00,62.8,56.5,30.16,ENE,68,6.0,11.0,80,0.00,,,0.00,meteohub,2013-10-10 23:17:00,
2013-10-10 19:22:00,62.4,56.1,30.16,ENE,68,5.0,12.0,80,0.00,,,0.00,meteohub,2013-10-10 23:22:00,
2013-10-10 19:27:00,62.4,56.1,30.15,East,90,7.0,12.0,80,0.00,,,0.00,meteohub,2013-10-10 23:27:00,
2013-10-10 19:32:00,62.2,55.9,30.15,ENE,68,8.0,8.0,80,0.00,,,0.00,meteohub,2013-10-10 23:32:00,
2013-10-10 19:37:00,62.4,56.5,30.15,ESE,113,6.0,17.0,81,0.00,,,0.00,meteohub,2013-10-10 23:37:00,
2013-10-10 19:42:00,62.2,56.3,30.15,ESE,113,8.0,17.0,81,0.00,,,0.00,meteohub,2013-10-10 23:42:00,
2013-10-10 19:47:00,62.1,56.1,30.15,SE,135,6.0,17.0,81,0.00,,,0.00,meteohub,2013-10-10 23:47:00,
2013-10-10 19:52:00,61.9,55.9,30.15,SSW,203,9.0,10.0,81,0.00,,,0.00,meteohub,2013-10-10 23:52:00,
2013-10-10 19:57:00,62.1,56.1,30.15,SE,135,10.0,10.0,81,0.00,,,0.00,meteohub,2013-10-10 23:57:00,
2013-10-10 20:02:00,62.1,56.1,30.15,NE,45,12.0,12.0,81,0.00,,,0.00,meteohub,2013-10-11 00:02:00,
2013-10-10 20:07:00,61.9,55.9,30.15,East,90,9.0,12.0,81,0.00,,,0.00,meteohub,2013-10-11 00:07:00,
2013-10-10 20:12:00,61.7,56.1,30.15,ENE,68,6.0,12.0,82,0.00,,,0.00,meteohub,2013-10-11 00:12:00,
2013-10-10 20:17:00,61.5,55.9,30.15,East,90,7.0,12.0,82,0.00,,,0.00,meteohub,2013-10-11 00:17:00,
2013-10-10 20:22:00,61.5,55.9,30.15,SE,135,9.0,11.0,82,0.00,,,0.00,meteohub,2013-10-11 00:22:00,
2013-10-10 20:27:00,61.5,55.9,30.15,ESE,113,8.0,9.0,82,0.00,,,0.00,meteohub,2013-10-11 00:27:00,
2013-10-10 20:32:00,61.3,55.8,30.15,ENE,68,9.0,9.0,82,0.00,,,0.00,meteohub,2013-10-11 00:32:00,
2013-10-10 20:37:00,61.2,55.6,30.15,East,90,10.0,10.0,82,0.00,,,0.00,meteohub,2013-10-11 00:37:00,
2013-10-10 20:42:00,61.0,55.4,30.15,ENE,68,8.0,12.0,82,0.00,,,0.00,meteohub,2013-10-11 00:42:00,
2013-10-10 20:47:00,60.8,55.2,30.15,ENE,68,6.0,13.0,82,0.00,,,0.00,meteohub,2013-10-11 00:47:00,
2013-10-10 20:52:00,60.8,55.2,30.15,ENE,68,7.0,13.0,82,0.00,,,0.00,meteohub,2013-10-11 00:52:00,
2013-10-10 20:57:00,60.6,55.0,30.15,ENE,68,9.0,13.0,82,0.00,,,0.00,meteohub,2013-10-11 00:57:00,
2013-10-10 21:02:00,60.6,55.4,30.15,SSE,158,9.0,13.0,83,0.00,,,0.00,meteohub,2013-10-11 01:02:00,
2013-10-10 21:07:00,60.4,55.2,30.15,ENE,68,11.0,13.0,83,0.00,,,0.00,meteohub,2013-10-11 01:07:00,
2013-10-10 21:12:00,60.3,55.0,30.15,SE,135,9.0,11.0,83,0.00,,,0.00,meteohub,2013-10-11 01:12:00,
2013-10-10 21:17:00,60.3,55.0,30.15,SE,135,7.0,12.0,83,0.00,,,0.00,meteohub,2013-10-11 01:17:00,
2013-10-10 21:22:00,60.3,55.0,30.15,SE,135,12.0,12.0,83,0.00,,,0.00,meteohub,2013-10-11 01:22:00,
2013-10-10 21:27:00,60.1,54.9,30.14,SE,135,13.0,13.0,83,0.00,,,0.00,meteohub,2013-10-11 01:27:00,
2013-10-10 21:32:00,59.9,55.0,30.14,ESE,113,13.0,13.0,84,0.00,,,0.00,meteohub,2013-10-11 01:32:00,
2013-10-10 21:37:00,59.9,55.0,30.14,NE,45,14.0,14.0,84,0.00,,,0.00,meteohub,2013-10-11 01:37:00,
2013-10-10 21:42:00,59.7,54.9,30.14,East,90,9.0,14.0,84,0.00,,,0.00,meteohub,2013-10-11 01:42:00,
2013-10-10 21:47:00,59.7,54.9,30.15,ESE,113,10.0,14.0,84,0.00,,,0.00,meteohub,2013-10-11 01:47:00,
2013-10-10 21:52:00,59.5,54.7,30.15,ENE,68,12.0,14.0,84,0.00,,,0.00,meteohub,2013-10-11 01:52:00,
2013-10-10 21:57:00,59.5,54.7,30.15,East,90,9.0,12.0,84,0.00,,,0.00,meteohub,2013-10-11 01:57:00,
2013-10-10 22:02:00,59.4,54.5,30.15,South,180,14.0,14.0,84,0.00,,,0.00,meteohub,2013-10-11 02:02:00,
2013-10-10 22:07:00,59.4,54.5,30.14,NW,315,17.0,17.0,84,0.00,,,0.00,meteohub,2013-10-11 02:07:00,
2013-10-10 22:13:00,59.5,54.7,30.14,SSE,158,7.0,14.0,84,0.00,,,0.00,meteohub,2013-10-11 02:13:00,
2013-10-10 22:18:00,59.5,54.7,30.14,East,90,11.0,17.0,84,0.00,,,0.00,meteohub,2013-10-11 02:18:00,
2013-10-10 22:23:00,59.5,54.7,30.14,ENE,68,14.0,17.0,84,0.00,,,0.00,meteohub,2013-10-11 02:23:00,
2013-10-10 22:28:00,59.5,54.7,30.14,SE,135,13.0,13.0,84,0.00,,,0.00,meteohub,2013-10-11 02:28:00,
2013-10-10 22:33:00,59.5,54.7,30.14,NE,45,11.0,14.0,84,0.00,,,0.00,meteohub,2013-10-11 02:33:00,
2013-10-10 22:38:00,59.5,54.7,30.14,ENE,68,13.0,15.0,84,0.00,,,0.00,meteohub,2013-10-11 02:38:00,
2013-10-10 22:43:00,59.5,54.7,30.14,ESE,113,8.0,15.0,84,0.00,,,0.00,meteohub,2013-10-11 02:43:00,
2013-10-10 22:49:00,59.5,55.0,30.14,NW,315,10.0,15.0,85,0.00,,,0.00,meteohub,2013-10-11 02:49:00,
2013-10-10 22:54:00,59.5,55.0,30.14,ESE,113,9.0,13.0,85,0.00,,,0.00,meteohub,2013-10-11 02:54:00,
2013-10-10 22:59:00,59.5,55.0,30.14,East,90,8.0,10.0,85,0.00,,,0.00,meteohub,2013-10-11 02:59:00,
2013-10-10 23:04:00,59.5,55.0,30.14,ENE,68,12.0,12.0,85,0.00,,,0.00,meteohub,2013-10-11 03:04:00,
2013-10-10 23:09:00,59.5,55.0,30.14,West,270,14.0,14.0,85,0.00,,,0.00,meteohub,2013-10-11 03:09:00,
2013-10-10 23:14:00,59.5,55.0,30.14,NE,45,10.0,12.0,85,0.00,,,0.00,meteohub,2013-10-11 03:14:00,
2013-10-10 23:19:00,59.5,55.0,30.14,East,90,11.0,14.0,85,0.00,,,0.00,meteohub,2013-10-11 03:19:00,
2013-10-10 23:24:00,59.5,55.0,30.12,ENE,68,15.0,15.0,85,0.00,,,0.00,meteohub,2013-10-11 03:24:00,
2013-10-10 23:29:00,59.5,55.0,30.12,ENE,68,9.0,15.0,85,0.00,,,0.00,meteohub,2013-10-11 03:29:00,
2013-10-10 23:34:00,59.4,54.9,30.12,SE,135,7.0,15.0,85,0.00,,,0.00,meteohub,2013-10-11 03:34:00,
2013-10-10 23:39:00,59.4,54.9,30.12,SE,135,11.0,15.0,85,0.00,,,0.00,meteohub,2013-10-11 03:39:00,
2013-10-10 23:45:00,59.4,54.9,30.11,ESE,113,11.0,11.0,85,0.00,,,0.00,meteohub,2013-10-11 03:45:00,
2013-10-10 23:50:00,59.4,54.9,30.11,ENE,68,9.0,11.0,85,0.00,,,0.00,meteohub,2013-10-11 03:50:00,
2013-10-10 23:55:00,59.4,54.9,30.11,East,90,10.0,11.0,85,0.00,,,0.00,meteohub,2013-10-11 03:55:00,